createdAt,value
2023-02-05T00:00:11.603Z,85.64
2023-02-05T00:01:11.588Z,85.81
2023-02-05T00:02:11.595Z,86.12
2023-02-05T00:03:11.573Z,86.33
2023-02-05T00:04:11.565Z,86.33
2023-02-05T00:05:11.544Z,86.23
2023-02-05T00:06:11.535Z,86.06
2023-02-05T00:07:11.526Z,86.06
2023-02-05T00:08:11.516Z,85.95
2023-02-05T00:09:11.481Z,86.06
2023-02-05T00:10:11.483Z,85.95
2023-02-05T00:11:11.463Z,85.85
2023-02-05T00:12:11.477Z,85.85
2023-02-05T00:13:11.452Z,86.06
2023-02-05T00:14:11.430Z,86.16
2023-02-05T00:15:11.411Z,86.37
2023-02-05T00:16:11.444Z,86.37
2023-02-05T00:17:11.379Z,86.16
2023-02-05T00:18:11.389Z,86.06
2023-02-05T00:19:11.358Z,85.89
2023-02-05T00:20:11.346Z,86.20
2023-02-05T00:21:11.343Z,86.30
2023-02-05T00:22:11.333Z,86.20
2023-02-05T00:23:11.332Z,86.10
2023-02-05T00:24:11.300Z,85.99
2023-02-05T00:25:11.300Z,86.03
2023-02-05T00:26:11.278Z,85.93
2023-02-05T00:27:11.260Z,86.03
2023-02-05T00:28:11.334Z,86.03
2023-02-05T00:29:11.241Z,85.93
2023-02-05T00:30:11.225Z,86.07
2023-02-05T00:31:11.247Z,85.96
2023-02-05T00:32:11.196Z,85.86
2023-02-05T00:33:11.202Z,85.75
2023-02-05T00:34:11.175Z,85.86
2023-02-05T00:35:11.152Z,85.86
2023-02-05T00:36:12.790Z,85.86
2023-02-05T00:37:11.135Z,85.86
2023-02-05T00:38:11.123Z,85.96
2023-02-05T00:39:11.123Z,86.07
2023-02-05T00:40:11.092Z,86.07
2023-02-05T00:41:11.089Z,86.18
2023-02-05T00:42:11.062Z,86.28
2023-02-05T00:43:11.065Z,86.28
2023-02-05T00:44:11.056Z,86.28
2023-02-05T00:45:11.036Z,86.28
2023-02-05T00:46:11.081Z,86.28
2023-02-05T00:47:11.000Z,86.28
2023-02-05T00:48:11.010Z,86.28
2023-02-05T00:49:10.974Z,86.18
2023-02-05T00:50:10.978Z,86.18
2023-02-05T00:51:10.947Z,86.28
2023-02-05T00:52:10.983Z,86.28
2023-02-05T00:53:10.947Z,86.38
2023-02-05T00:54:10.908Z,86.49
2023-02-05T00:55:10.901Z,86.80
2023-02-05T00:56:10.895Z,87.12
2023-02-05T00:57:10.881Z,87.19
2023-02-05T00:58:10.868Z,87.40
2023-02-05T00:59:10.849Z,87.60
2023-02-05T01:00:10.856Z,87.57
2023-02-05T01:01:10.923Z,87.46
2023-02-05T01:02:10.843Z,87.25
2023-02-05T01:03:10.827Z,87.25
2023-02-05T01:04:10.783Z,87.15
2023-02-05T01:05:10.781Z,87.04
2023-02-05T01:06:10.758Z,86.79
2023-02-05T01:07:10.758Z,86.58
2023-02-05T01:08:10.740Z,86.58
2023-02-05T01:09:10.731Z,86.69
2023-02-05T01:10:10.707Z,86.83
2023-02-05T01:11:10.707Z,86.83
2023-02-05T01:12:10.690Z,87.04
2023-02-05T01:13:10.688Z,87.15
2023-02-05T01:14:10.661Z,87.15
2023-02-05T01:15:10.656Z,86.94
2023-02-05T01:16:10.785Z,86.83
2023-02-05T01:17:10.627Z,86.83
2023-02-05T01:18:10.631Z,86.72
2023-02-05T01:19:10.600Z,86.62
2023-02-05T01:20:10.578Z,86.41
2023-02-05T01:21:10.578Z,86.20
2023-02-05T01:22:10.572Z,86.10
2023-02-05T01:23:10.558Z,85.99
2023-02-05T01:24:10.537Z,86.10
2023-02-05T01:25:10.544Z,86.20
2023-02-05T01:26:10.507Z,86.20
2023-02-05T01:27:10.498Z,86.10
2023-02-05T01:28:10.612Z,86.10
2023-02-05T01:29:10.474Z,86.10
2023-02-05T01:30:10.456Z,86.20
2023-02-05T01:31:10.541Z,86.10
2023-02-05T01:32:10.439Z,86.10
2023-02-05T01:33:10.447Z,86.30
2023-02-05T01:34:10.408Z,86.52
2023-02-05T01:35:10.404Z,86.62
2023-02-05T01:36:10.384Z,86.62
2023-02-05T01:37:10.376Z,86.30
2023-02-05T01:38:10.393Z,86.10
2023-02-05T01:39:10.363Z,85.89
2023-02-05T01:40:10.328Z,85.78
2023-02-05T01:41:10.322Z,85.47
2023-02-05T01:42:10.314Z,85.47
2023-02-05T01:43:10.301Z,85.47
2023-02-05T01:44:10.295Z,85.93
2023-02-05T01:45:10.272Z,86.24
2023-02-05T01:46:10.262Z,86.24
2023-02-05T01:47:10.242Z,86.13
2023-02-05T01:48:10.226Z,86.07
2023-02-05T01:49:10.230Z,85.86
2023-02-05T01:50:10.204Z,85.55
2023-02-05T01:51:10.185Z,85.33
2023-02-05T01:52:10.176Z,85.48
2023-02-05T01:53:10.175Z,85.58
2023-02-05T01:54:10.146Z,85.83
2023-02-05T01:55:10.148Z,86.04
2023-02-05T01:56:10.114Z,86.25
2023-02-05T01:57:10.103Z,86.25
2023-02-05T01:58:10.113Z,86.36
2023-02-05T01:59:10.109Z,86.51
2023-02-05T02:00:10.064Z,86.61
2023-02-05T02:01:10.061Z,86.71
2023-02-05T02:02:10.047Z,86.82
2023-02-05T02:03:10.041Z,86.71
2023-02-05T02:04:10.020Z,86.61
2023-02-05T02:05:10.074Z,86.71
2023-02-05T02:06:09.992Z,87.07
2023-02-05T02:07:10.018Z,87.49
2023-02-05T02:08:09.996Z,87.70
2023-02-05T02:09:09.958Z,87.70
2023-02-05T02:10:09.937Z,87.81
2023-02-05T02:11:09.932Z,87.81
2023-02-05T02:12:09.926Z,87.70
2023-02-05T02:13:09.933Z,87.70
2023-02-05T02:14:09.898Z,87.95
2023-02-05T02:15:09.896Z,87.95
2023-02-05T02:16:09.912Z,87.95
2023-02-05T02:17:09.868Z,88.06
2023-02-05T02:18:09.854Z,88.06
2023-02-05T02:19:09.829Z,87.95
2023-02-05T02:20:09.828Z,87.95
2023-02-05T02:21:09.820Z,87.88
2023-02-05T02:22:09.800Z,87.78
2023-02-05T02:23:09.795Z,87.57
2023-02-05T02:24:09.769Z,87.46
2023-02-05T02:25:09.757Z,87.46
2023-02-05T02:26:09.756Z,87.36
2023-02-05T02:27:09.735Z,87.36
2023-02-05T02:28:09.765Z,87.29
2023-02-05T02:29:09.704Z,87.19
2023-02-05T02:30:09.696Z,87.08
2023-02-05T02:31:09.708Z,86.98
2023-02-05T02:32:09.665Z,86.87
2023-02-05T02:33:09.676Z,86.87
2023-02-05T02:34:09.643Z,86.87
2023-02-05T02:35:09.631Z,87.23
2023-02-05T02:36:09.628Z,87.23
2023-02-05T02:37:09.606Z,87.33
2023-02-05T02:38:09.595Z,87.44
2023-02-05T02:39:09.631Z,87.54
2023-02-05T02:40:09.559Z,87.54
2023-02-05T02:41:09.569Z,87.54
2023-02-05T02:42:09.532Z,87.65
2023-02-05T02:43:09.559Z,87.54
2023-02-05T02:44:09.511Z,87.54
2023-02-05T02:45:09.504Z,87.86
2023-02-05T02:46:09.493Z,88.18
2023-02-05T02:47:09.484Z,88.28
2023-02-05T02:48:09.473Z,88.39
2023-02-05T02:49:09.486Z,88.64
2023-02-05T02:50:09.443Z,88.75
2023-02-05T02:51:09.440Z,88.64
2023-02-05T02:52:09.430Z,88.64
2023-02-05T02:53:09.403Z,88.64
2023-02-05T02:54:09.412Z,88.57
2023-02-05T02:55:09.388Z,88.68
2023-02-05T02:56:09.370Z,88.78
2023-02-05T02:57:09.363Z,88.78
2023-02-05T02:58:09.343Z,88.78
2023-02-05T02:59:09.354Z,88.68
2023-02-05T03:00:09.314Z,88.57
2023-02-05T03:01:09.426Z,88.46
2023-02-05T03:02:09.294Z,88.36
2023-02-05T03:03:09.283Z,88.36
2023-02-05T03:04:09.288Z,88.26
2023-02-05T03:05:09.270Z,88.36
2023-02-05T03:06:09.245Z,88.36
2023-02-05T03:07:09.240Z,88.36
2023-02-05T03:08:09.228Z,88.36
2023-02-05T03:09:09.247Z,88.36
2023-02-05T03:10:09.215Z,88.51
2023-02-05T03:11:09.190Z,88.61
2023-02-05T03:12:09.173Z,88.61
2023-02-05T03:13:09.169Z,88.61
2023-02-05T03:14:09.154Z,88.71
2023-02-05T03:15:09.163Z,88.61
2023-02-05T03:16:09.221Z,88.61
2023-02-05T03:17:09.109Z,88.51
2023-02-05T03:18:09.094Z,88.40
2023-02-05T03:19:09.110Z,88.19
2023-02-05T03:20:09.078Z,88.19
2023-02-05T03:21:09.079Z,88.09
2023-02-05T03:22:09.048Z,88.12
2023-02-05T03:23:09.044Z,88.02
2023-02-05T03:24:09.030Z,87.92
2023-02-05T03:25:09.015Z,87.92
2023-02-05T03:26:09.008Z,87.92
2023-02-05T03:27:08.987Z,87.92
2023-02-05T03:28:08.993Z,87.81
2023-02-05T03:29:08.979Z,87.92
2023-02-05T03:30:08.953Z,87.92
2023-02-05T03:31:08.989Z,87.92
2023-02-05T03:32:08.915Z,88.02
2023-02-05T03:33:08.905Z,88.02
2023-02-05T03:34:08.918Z,88.12
2023-02-05T03:35:08.883Z,88.23
2023-02-05T03:36:08.863Z,88.23
2023-02-05T03:37:08.862Z,88.23
2023-02-05T03:38:08.854Z,88.37
2023-02-05T03:39:08.872Z,88.48
2023-02-05T03:40:08.813Z,88.59
2023-02-05T03:41:08.812Z,88.69
2023-02-05T03:42:08.913Z,89.01
2023-02-05T03:43:08.804Z,89.22
2023-02-05T03:44:08.772Z,89.64
2023-02-05T03:45:08.762Z,89.96
2023-02-05T03:46:08.768Z,90.06
2023-02-05T03:47:08.730Z,90.28
2023-02-05T03:48:08.722Z,90.38
2023-02-05T03:49:08.738Z,90.38
2023-02-05T03:50:08.690Z,90.49
2023-02-05T03:51:08.697Z,90.49
2023-02-05T03:52:08.672Z,90.59
2023-02-05T03:53:08.658Z,90.59
2023-02-05T03:54:08.655Z,90.59
2023-02-05T03:55:08.635Z,90.49
2023-02-05T03:56:08.628Z,90.38
2023-02-05T03:57:08.622Z,90.28
2023-02-05T03:58:08.596Z,90.17
2023-02-05T03:59:08.592Z,90.06
2023-02-05T04:00:08.580Z,90.06
2023-02-05T04:01:08.572Z,90.06
2023-02-05T04:02:08.571Z,90.06
2023-02-05T04:03:08.544Z,90.06
2023-02-05T04:04:08.530Z,90.06
2023-02-05T04:05:08.525Z,90.06
2023-02-05T04:06:08.480Z,90.21
2023-02-05T04:07:08.496Z,90.11
2023-02-05T04:08:08.457Z,90.00
2023-02-05T04:09:08.457Z,89.96
2023-02-05T04:10:08.466Z,90.11
2023-02-05T04:11:08.427Z,90.11
2023-02-05T04:12:08.416Z,90.11
2023-02-05T04:13:08.404Z,90.00
2023-02-05T04:14:08.539Z,89.89
2023-02-05T04:15:08.398Z,89.79
2023-02-05T04:16:08.417Z,89.79
2023-02-05T04:17:08.355Z,89.69
2023-02-05T04:18:08.346Z,89.58
2023-02-05T04:19:08.322Z,89.47
2023-02-05T04:20:08.322Z,89.47
2023-02-05T04:21:08.327Z,89.37
2023-02-05T04:22:08.281Z,89.26
2023-02-05T04:23:08.284Z,89.15
2023-02-05T04:24:08.365Z,89.05
2023-02-05T04:25:08.302Z,89.05
2023-02-05T04:26:08.240Z,88.94
2023-02-05T04:27:08.222Z,88.84
2023-02-05T04:28:08.270Z,88.84
2023-02-05T04:29:08.204Z,88.84
2023-02-05T04:30:08.192Z,88.73
2023-02-05T04:31:08.179Z,88.62
2023-02-05T04:32:08.161Z,88.62
2023-02-05T04:33:08.165Z,88.62
2023-02-05T04:34:08.132Z,88.73
2023-02-05T04:35:08.146Z,88.84
2023-02-05T04:36:08.121Z,89.05
2023-02-05T04:37:08.113Z,89.26
2023-02-05T04:38:08.093Z,89.47
2023-02-05T04:39:08.119Z,89.58
2023-02-05T04:40:08.161Z,89.79
2023-02-05T04:41:08.063Z,89.79
2023-02-05T04:42:08.039Z,89.89
2023-02-05T04:43:08.031Z,89.89
2023-02-05T04:44:08.023Z,89.79
2023-02-05T04:45:08.022Z,89.69
2023-02-05T04:46:08.093Z,89.58
2023-02-05T04:47:07.979Z,89.47
2023-02-05T04:48:07.968Z,89.37
2023-02-05T04:49:07.973Z,89.26
2023-02-05T04:50:07.954Z,89.05
2023-02-05T04:51:07.921Z,88.94
2023-02-05T04:52:07.918Z,88.84
2023-02-05T04:53:07.990Z,88.62
2023-02-05T04:54:07.891Z,88.56
2023-02-05T04:55:07.887Z,88.52
2023-02-05T04:56:07.882Z,88.35
2023-02-05T04:57:07.859Z,88.35
2023-02-05T04:58:07.847Z,88.24
2023-02-05T04:59:07.828Z,88.24
2023-02-05T05:00:07.860Z,88.13
2023-02-05T05:01:07.891Z,88.13
2023-02-05T05:02:07.818Z,88.03
2023-02-05T05:03:07.775Z,88.03
2023-02-05T05:04:07.769Z,88.03
2023-02-05T05:05:07.766Z,87.93
2023-02-05T05:06:07.744Z,87.93
2023-02-05T05:07:07.725Z,87.82
2023-02-05T05:08:07.720Z,87.82
2023-02-05T05:09:07.706Z,87.82
2023-02-05T05:10:07.715Z,87.93
2023-02-05T05:11:07.675Z,88.03
2023-02-05T05:12:07.669Z,88.24
2023-02-05T05:13:07.653Z,88.56
2023-02-05T05:14:07.642Z,88.98
2023-02-05T05:15:07.646Z,89.20
2023-02-05T05:16:07.729Z,89.55
2023-02-05T05:17:07.601Z,89.66
2023-02-05T05:18:07.604Z,89.76
2023-02-05T05:19:07.572Z,89.76
2023-02-05T05:20:07.594Z,89.66
2023-02-05T05:21:07.552Z,89.55
2023-02-05T05:22:07.553Z,89.55
2023-02-05T05:23:07.532Z,89.45
2023-02-05T05:24:07.517Z,89.34
2023-02-05T05:25:07.533Z,89.23
2023-02-05T05:26:07.503Z,89.23
2023-02-05T05:27:07.481Z,89.23
2023-02-05T05:28:07.501Z,89.23
2023-02-05T05:29:07.457Z,89.23
2023-02-05T05:30:07.452Z,89.13
2023-02-05T05:31:07.483Z,89.13
2023-02-05T05:32:07.461Z,89.03
2023-02-05T05:33:07.410Z,88.92
2023-02-05T05:34:07.389Z,88.81
2023-02-05T05:35:07.387Z,88.71
2023-02-05T05:36:07.367Z,88.71
2023-02-05T05:37:07.352Z,88.49
2023-02-05T05:38:07.358Z,88.39
2023-02-05T05:39:07.327Z,88.28
2023-02-05T05:40:07.332Z,88.18
2023-02-05T05:41:07.307Z,88.18
2023-02-05T05:42:07.295Z,88.18
2023-02-05T05:43:07.275Z,88.18
2023-02-05T05:44:07.265Z,88.28
2023-02-05T05:45:07.264Z,88.28
2023-02-05T05:46:07.303Z,88.28
2023-02-05T05:47:07.266Z,88.53
2023-02-05T05:48:07.224Z,88.75
2023-02-05T05:49:07.216Z,88.96
2023-02-05T05:50:07.204Z,89.06
2023-02-05T05:51:07.220Z,89.06
2023-02-05T05:52:07.173Z,89.17
2023-02-05T05:53:07.156Z,89.17
2023-02-05T05:54:07.144Z,89.17
2023-02-05T05:55:07.153Z,89.17
2023-02-05T05:56:07.113Z,89.17
2023-02-05T05:57:07.136Z,89.17
2023-02-05T05:58:07.170Z,89.17
2023-02-05T05:59:07.071Z,89.28
2023-02-05T06:00:07.069Z,89.49
2023-02-05T06:01:07.047Z,89.81
2023-02-05T06:02:07.047Z,90.01
2023-02-05T06:03:07.028Z,90.23
2023-02-05T06:04:07.028Z,90.44
2023-02-05T06:05:07.015Z,90.55
2023-02-05T06:06:07.004Z,90.65
2023-02-05T06:07:07.392Z,90.76
2023-02-05T06:08:06.993Z,90.86
2023-02-05T06:09:06.946Z,90.86
2023-02-05T06:10:06.958Z,90.97
2023-02-05T06:11:06.928Z,91.08
2023-02-05T06:12:06.925Z,91.08
2023-02-05T06:13:06.891Z,91.08
2023-02-05T06:14:06.903Z,90.97
2023-02-05T06:15:07.311Z,90.86
2023-02-05T06:16:06.934Z,90.76
2023-02-05T06:17:06.871Z,90.76
2023-02-05T06:18:06.840Z,90.76
2023-02-05T06:19:06.822Z,90.76
2023-02-05T06:20:06.818Z,90.76
2023-02-05T06:21:06.799Z,90.76
2023-02-05T06:22:06.797Z,90.76
2023-02-05T06:23:06.779Z,90.76
2023-02-05T06:24:06.757Z,90.76
2023-02-05T06:25:06.757Z,90.65
2023-02-05T06:26:06.771Z,90.50
2023-02-05T06:27:06.715Z,90.40
2023-02-05T06:28:06.743Z,90.40
2023-02-05T06:29:06.699Z,90.30
2023-02-05T06:30:06.721Z,90.30
2023-02-05T06:31:06.729Z,90.19
2023-02-05T06:32:06.663Z,90.19
2023-02-05T06:33:06.653Z,90.30
2023-02-05T06:34:06.637Z,90.30
2023-02-05T06:35:06.645Z,90.30
2023-02-05T06:36:06.627Z,90.08
2023-02-05T06:37:06.595Z,89.98
2023-02-05T06:38:06.590Z,89.94
2023-02-05T06:39:06.607Z,89.83
2023-02-05T06:40:06.583Z,89.72
2023-02-05T06:41:06.546Z,89.62
2023-02-05T06:42:06.543Z,89.72
2023-02-05T06:43:06.530Z,89.72
2023-02-05T06:44:06.518Z,89.94
2023-02-05T06:45:06.513Z,90.04
2023-02-05T06:46:06.521Z,90.04
2023-02-05T06:47:06.474Z,90.15
2023-02-05T06:48:06.477Z,90.00
2023-02-05T06:49:06.442Z,90.00
2023-02-05T06:50:06.446Z,90.11
2023-02-05T06:51:06.434Z,90.11
2023-02-05T06:52:06.415Z,90.21
2023-02-05T06:53:06.409Z,90.32
2023-02-05T06:54:06.392Z,90.32
2023-02-05T06:55:06.395Z,90.11
2023-02-05T06:56:06.372Z,90.11
2023-02-05T06:57:06.359Z,90.00
2023-02-05T06:58:06.344Z,90.11
2023-02-05T06:59:06.322Z,90.11
2023-02-05T07:00:06.331Z,90.21
2023-02-05T07:01:06.308Z,90.21
2023-02-05T07:02:06.299Z,90.21
2023-02-05T07:03:06.268Z,90.21
2023-02-05T07:04:06.259Z,90.21
2023-02-05T07:05:06.260Z,90.11
2023-02-05T07:06:06.259Z,90.00
2023-02-05T07:07:06.229Z,89.96
2023-02-05T07:08:06.219Z,89.96
2023-02-05T07:09:06.201Z,89.86
2023-02-05T07:10:06.222Z,89.86
2023-02-05T07:11:06.186Z,89.86
2023-02-05T07:12:06.173Z,89.75
2023-02-05T07:13:06.183Z,89.75
2023-02-05T07:14:06.152Z,89.75
2023-02-05T07:15:06.140Z,89.64
2023-02-05T07:16:06.169Z,89.64
2023-02-05T07:17:06.116Z,89.54
2023-02-05T07:18:06.097Z,89.43
2023-02-05T07:19:06.093Z,89.22
2023-02-05T07:20:06.079Z,89.07
2023-02-05T07:21:06.084Z,88.86
2023-02-05T07:22:06.046Z,88.76
2023-02-05T07:23:06.031Z,88.65
2023-02-05T07:24:06.032Z,88.54
2023-02-05T07:25:06.044Z,88.44
2023-02-05T07:26:05.998Z,88.54
2023-02-05T07:27:05.977Z,88.65
2023-02-05T07:28:05.994Z,88.76
2023-02-05T07:29:05.956Z,88.86
2023-02-05T07:30:05.957Z,88.86
2023-02-05T07:31:06.008Z,88.71
2023-02-05T07:32:06.090Z,88.82
2023-02-05T07:33:05.906Z,89.03
2023-02-05T07:34:05.903Z,89.25
2023-02-05T07:35:05.900Z,89.46
2023-02-05T07:36:05.885Z,89.56
2023-02-05T07:37:05.872Z,89.67
2023-02-05T07:38:05.856Z,89.73
2023-02-05T07:39:05.823Z,89.94
2023-02-05T07:40:05.844Z,90.16
2023-02-05T07:41:05.814Z,90.37
2023-02-05T07:42:05.791Z,90.58
2023-02-05T07:43:05.779Z,90.85
2023-02-05T07:44:05.780Z,91.06
2023-02-05T07:45:05.797Z,91.28
2023-02-05T07:46:05.735Z,91.49
2023-02-05T07:47:05.739Z,91.70
2023-02-05T07:48:05.716Z,91.97
2023-02-05T07:49:05.725Z,92.29
2023-02-05T07:50:05.710Z,92.82
2023-02-05T07:51:05.694Z,93.45
2023-02-05T07:52:05.663Z,93.62
2023-02-05T07:53:05.657Z,94.04
2023-02-05T07:54:05.634Z,94.35
2023-02-05T07:55:05.675Z,94.63
2023-02-05T07:56:05.611Z,94.73
2023-02-05T07:57:07.026Z,94.95
2023-02-05T07:58:05.591Z,95.05
2023-02-05T07:59:05.580Z,95.32
2023-02-05T08:00:05.569Z,95.43
2023-02-05T08:01:05.614Z,95.53
2023-02-05T08:02:05.543Z,95.75
2023-02-05T08:03:05.530Z,95.81
2023-02-05T08:04:05.593Z,95.91
2023-02-05T08:05:05.528Z,96.02
2023-02-05T08:06:05.488Z,96.02
2023-02-05T08:07:05.488Z,96.02
2023-02-05T08:08:05.468Z,95.97
2023-02-05T08:09:05.457Z,95.97
2023-02-05T08:10:05.460Z,95.97
2023-02-05T08:11:05.433Z,95.97
2023-02-05T08:12:05.409Z,95.93
2023-02-05T08:13:05.408Z,95.93
2023-02-05T08:14:05.396Z,95.93
2023-02-05T08:15:05.418Z,95.93
2023-02-05T08:16:05.381Z,96.10
2023-02-05T08:17:05.367Z,96.20
2023-02-05T08:18:05.340Z,96.20
2023-02-05T08:19:05.332Z,96.20
2023-02-05T08:20:05.361Z,96.16
2023-02-05T08:21:05.317Z,96.16
2023-02-05T08:22:05.286Z,96.16
2023-02-05T08:23:05.292Z,96.26
2023-02-05T08:24:05.254Z,96.26
2023-02-05T08:25:05.370Z,96.22
2023-02-05T08:26:05.242Z,96.22
2023-02-05T08:27:05.225Z,96.01
2023-02-05T08:28:05.254Z,95.86
2023-02-05T08:29:05.211Z,95.86
2023-02-05T08:30:05.190Z,95.86
2023-02-05T08:31:05.206Z,95.76
2023-02-05T08:32:05.166Z,95.72
2023-02-05T08:33:05.156Z,95.61
2023-02-05T08:34:05.131Z,95.29
2023-02-05T08:35:05.146Z,95.19
2023-02-05T08:36:05.117Z,95.04
2023-02-05T08:37:05.103Z,94.83
2023-02-05T08:38:05.110Z,94.73
2023-02-05T08:39:05.083Z,94.58
2023-02-05T08:40:05.068Z,94.58
2023-02-05T08:41:05.048Z,94.58
2023-02-05T08:42:05.039Z,94.37
2023-02-05T08:43:05.022Z,94.22
2023-02-05T08:44:05.008Z,94.12
2023-02-05T08:45:05.006Z,93.80
2023-02-05T08:46:04.995Z,93.59
2023-02-05T08:47:04.969Z,93.59
2023-02-05T08:48:04.964Z,93.44
2023-02-05T08:49:04.954Z,93.44
2023-02-05T08:50:04.952Z,93.24
2023-02-05T08:51:04.931Z,93.13
2023-02-05T08:52:04.908Z,93.02
2023-02-05T08:53:04.899Z,92.67
2023-02-05T08:54:04.876Z,92.35
2023-02-05T08:55:04.888Z,92.25
2023-02-05T08:56:04.863Z,91.62
2023-02-05T08:57:04.852Z,91.41
2023-02-05T08:58:04.824Z,91.41
2023-02-05T08:59:04.825Z,91.37
2023-02-05T09:00:04.812Z,91.37
2023-02-05T09:01:04.830Z,91.27
2023-02-05T09:02:04.779Z,91.27
2023-02-05T09:03:04.763Z,90.74
2023-02-05T09:04:04.770Z,90.59
2023-02-05T09:05:09.248Z,90.28
2023-02-05T09:06:05.724Z,90.08
2023-02-05T09:07:04.720Z,89.97
2023-02-05T09:08:04.704Z,89.86
2023-02-05T09:09:04.689Z,89.72
2023-02-05T09:10:04.684Z,89.51
2023-02-05T09:11:04.690Z,89.20
2023-02-05T09:12:04.651Z,88.99
2023-02-05T09:13:04.642Z,88.78
2023-02-05T09:14:04.625Z,87.69
2023-02-05T09:15:04.629Z,87.38
2023-02-05T09:16:04.614Z,87.48
2023-02-05T09:17:04.603Z,87.59
2023-02-05T09:18:04.570Z,87.69
2023-02-05T09:19:04.574Z,87.80
2023-02-05T09:20:04.551Z,87.65
2023-02-05T09:21:04.550Z,87.34
2023-02-05T09:22:04.533Z,86.71
2023-02-05T09:23:04.510Z,86.19
2023-02-05T09:24:04.492Z,85.98
2023-02-05T09:25:04.509Z,85.56
2023-02-05T09:26:04.492Z,84.94
2023-02-05T09:27:06.357Z,84.31
2023-02-05T09:28:04.497Z,84.20
2023-02-05T09:29:04.446Z,83.95
2023-02-05T09:30:04.423Z,83.95
2023-02-05T09:31:04.537Z,83.95
2023-02-05T09:32:04.408Z,83.95
2023-02-05T09:33:04.393Z,84.06
2023-02-05T09:34:04.382Z,84.38
2023-02-05T09:35:04.363Z,84.27
2023-02-05T09:36:04.387Z,84.06
2023-02-05T09:37:04.350Z,84.12
2023-02-05T09:38:04.332Z,83.92
2023-02-05T09:39:16.843Z,83.81
2023-02-05T09:40:20.409Z,83.40
2023-02-05T09:41:05.310Z,83.29
2023-02-05T09:42:04.296Z,83.18
2023-02-05T09:43:04.274Z,82.98
2023-02-05T09:44:04.252Z,82.84
2023-02-05T09:45:04.249Z,82.63
2023-02-05T09:46:04.287Z,82.53
2023-02-05T09:47:04.208Z,81.90
2023-02-05T09:48:04.203Z,81.59
2023-02-05T09:49:04.209Z,81.38
2023-02-05T09:50:04.209Z,80.85
2023-02-05T09:51:04.183Z,81.27
2023-02-05T09:52:04.140Z,81.59
2023-02-05T09:53:04.139Z,81.79
2023-02-05T09:54:04.118Z,81.23
2023-02-05T09:55:04.121Z,81.65
2023-02-05T09:56:04.103Z,81.86
2023-02-05T09:57:04.091Z,81.65
2023-02-05T09:58:04.063Z,81.55
2023-02-05T09:59:04.070Z,81.45
2023-02-05T10:00:04.045Z,81.23
2023-02-05T10:01:04.085Z,81.13
2023-02-05T10:02:05.877Z,81.13
2023-02-05T10:03:04.002Z,81.09
2023-02-05T10:04:04.048Z,81.20
2023-02-05T10:05:03.982Z,81.30
2023-02-05T10:06:03.980Z,81.20
2023-02-05T10:07:03.981Z,80.68
2023-02-05T10:08:03.953Z,79.84
2023-02-05T10:09:03.939Z,79.94
2023-02-05T10:10:03.916Z,80.26
2023-02-05T10:11:03.919Z,80.47
2023-02-05T10:12:03.891Z,79.53
2023-02-05T10:13:03.877Z,79.63
2023-02-05T10:14:03.848Z,79.43
2023-02-05T10:15:04.029Z,79.32
2023-02-05T10:16:03.879Z,78.80
2023-02-05T10:17:03.814Z,78.59
2023-02-05T10:18:03.807Z,78.80
2023-02-05T10:19:03.797Z,78.69
2023-02-05T10:20:04.138Z,78.59
2023-02-05T10:21:03.790Z,78.34
2023-02-05T10:22:03.794Z,77.93
2023-02-05T10:23:03.747Z,78.03
2023-02-05T10:24:03.726Z,78.14
2023-02-05T10:25:03.721Z,77.62
2023-02-05T10:26:03.707Z,77.62
2023-02-05T10:27:03.700Z,77.72
2023-02-05T10:28:03.716Z,77.93
2023-02-05T10:29:03.678Z,77.93
2023-02-05T10:30:03.663Z,77.51
2023-02-05T10:31:03.760Z,75.85
2023-02-05T10:32:03.640Z,75.53
2023-02-05T10:33:03.627Z,75.95
2023-02-05T10:34:03.597Z,76.26
2023-02-05T10:35:03.607Z,75.32
2023-02-05T10:36:03.580Z,75.32
2023-02-05T10:37:03.575Z,75.85
2023-02-05T10:38:04.707Z,75.85
2023-02-05T10:39:03.545Z,76.26
2023-02-05T10:40:03.528Z,76.57
2023-02-05T10:41:03.522Z,76.78
2023-02-05T10:42:03.523Z,76.65
2023-02-05T10:43:03.492Z,76.54
2023-02-05T10:44:03.475Z,76.43
2023-02-05T10:45:03.462Z,75.19
2023-02-05T10:46:03.479Z,75.19
2023-02-05T10:47:03.443Z,75.60
2023-02-05T10:48:03.410Z,76.12
2023-02-05T10:49:03.410Z,76.33
2023-02-05T10:50:03.389Z,76.23
2023-02-05T10:51:03.441Z,76.02
2023-02-05T10:52:03.388Z,75.88
2023-02-05T10:53:03.349Z,75.78
2023-02-05T10:54:03.335Z,75.98
2023-02-05T10:55:03.341Z,75.36
2023-02-05T10:56:03.324Z,75.15
2023-02-05T10:57:03.316Z,75.05
2023-02-05T10:58:03.341Z,75.05
2023-02-05T10:59:03.280Z,75.15
2023-02-05T11:00:03.279Z,75.05
2023-02-05T11:01:03.255Z,75.05
2023-02-05T11:02:03.266Z,75.26
2023-02-05T11:03:03.301Z,75.26
2023-02-05T11:04:03.209Z,75.43
2023-02-05T11:05:03.198Z,75.64
2023-02-05T11:06:03.191Z,75.54
2023-02-05T11:07:03.188Z,75.32
2023-02-05T11:08:03.163Z,75.32
2023-02-05T11:09:03.168Z,74.70
2023-02-05T11:10:03.144Z,74.39
2023-02-05T11:11:03.143Z,73.87
2023-02-05T11:12:03.141Z,74.08
2023-02-05T11:13:03.095Z,74.39
2023-02-05T11:14:03.081Z,74.39
2023-02-05T11:15:03.080Z,73.77
2023-02-05T11:16:03.142Z,73.66
2023-02-05T11:17:03.053Z,73.35
2023-02-05T11:18:03.043Z,72.52
2023-02-05T11:19:03.447Z,72.62
2023-02-05T11:20:03.023Z,72.80
2023-02-05T11:21:03.023Z,73.42
2023-02-05T11:22:02.997Z,72.90
2023-02-05T11:23:03.001Z,73.11
2023-02-05T11:24:02.953Z,73.00
2023-02-05T11:25:02.944Z,72.80
2023-02-05T11:26:02.944Z,73.00
2023-02-05T11:27:02.990Z,73.42
2023-02-05T11:28:03.199Z,73.83
2023-02-05T11:29:02.903Z,73.73
2023-02-05T11:30:02.895Z,73.94
2023-02-05T11:31:02.998Z,74.15
2023-02-05T11:32:02.947Z,73.00
2023-02-05T11:33:02.849Z,73.11
2023-02-05T11:34:02.866Z,73.32
2023-02-05T11:35:02.834Z,73.52
2023-02-05T11:36:02.819Z,73.83
2023-02-05T11:37:02.808Z,74.46
2023-02-05T11:38:02.785Z,74.53
2023-02-05T11:39:02.767Z,74.11
2023-02-05T11:40:02.774Z,73.49
2023-02-05T11:41:02.761Z,73.18
2023-02-05T11:42:02.738Z,72.55
2023-02-05T11:43:02.725Z,71.86
2023-02-05T11:44:02.696Z,72.07
2023-02-05T11:45:02.701Z,72.69
2023-02-05T11:46:02.670Z,73.11
2023-02-05T11:47:02.681Z,72.69
2023-02-05T11:48:02.674Z,72.07
2023-02-05T11:49:02.651Z,72.28
2023-02-05T11:50:02.627Z,72.24
2023-02-05T11:51:02.616Z,72.45
2023-02-05T11:52:02.660Z,72.55
2023-02-05T11:53:02.593Z,71.83
2023-02-05T11:54:02.591Z,71.41
2023-02-05T11:55:02.579Z,71.83
2023-02-05T11:56:02.549Z,71.93
2023-02-05T11:57:02.546Z,72.34
2023-02-05T11:58:02.553Z,71.41
2023-02-05T11:59:02.525Z,70.89
2023-02-05T12:00:02.503Z,71.51
2023-02-05T12:01:02.499Z,71.72
2023-02-05T12:02:02.559Z,71.00
2023-02-05T12:03:02.579Z,70.03
2023-02-05T12:04:02.494Z,70.44
2023-02-05T12:05:02.445Z,70.97
2023-02-05T12:06:02.427Z,69.82
2023-02-05T12:07:02.408Z,69.71
2023-02-05T12:08:02.415Z,70.03
2023-02-05T12:09:02.397Z,70.34
2023-02-05T12:10:02.379Z,69.92
2023-02-05T12:11:02.366Z,70.44
2023-02-05T12:12:02.355Z,70.54
2023-02-05T12:13:02.344Z,70.13
2023-02-05T12:14:02.325Z,70.41
2023-02-05T12:15:02.328Z,70.62
2023-02-05T12:16:02.325Z,70.31
2023-02-05T12:17:02.285Z,70.10
2023-02-05T12:18:02.304Z,69.68
2023-02-05T12:19:02.272Z,70.10
2023-02-05T12:20:02.252Z,70.31
2023-02-05T12:21:02.238Z,69.37
2023-02-05T12:22:02.236Z,69.27
2023-02-05T12:23:02.236Z,69.58
2023-02-05T12:24:02.215Z,69.89
2023-02-05T12:25:02.197Z,69.76
2023-02-05T12:26:02.189Z,69.86
2023-02-05T12:27:02.163Z,69.76
2023-02-05T12:28:02.191Z,69.86
2023-02-05T12:29:02.146Z,70.17
2023-02-05T12:30:02.121Z,69.86
2023-02-05T12:31:02.110Z,69.45
2023-02-05T12:32:02.105Z,70.28
2023-02-05T12:33:02.089Z,70.48
2023-02-05T12:34:02.105Z,70.59
2023-02-05T12:35:02.056Z,71.00
2023-02-05T12:36:02.058Z,71.31
2023-02-05T12:37:02.035Z,70.38
2023-02-05T12:38:02.025Z,69.96
2023-02-05T12:39:03.338Z,70.28
2023-02-05T12:40:02.023Z,70.38
2023-02-05T12:41:01.974Z,70.48
2023-02-05T12:42:01.968Z,70.17
2023-02-05T12:43:01.983Z,70.69
2023-02-05T12:44:01.943Z,70.69
2023-02-05T12:45:01.929Z,70.59
2023-02-05T12:46:01.931Z,70.90
2023-02-05T12:47:01.905Z,71.00
2023-02-05T12:48:01.901Z,71.52
2023-02-05T12:49:01.883Z,71.42
2023-02-05T12:50:01.887Z,71.00
2023-02-05T12:51:01.851Z,70.69
2023-02-05T12:52:01.843Z,70.90